Time;durP1;ratioP1;P1;durP2;ratioP2;P2;SDS_P1;SDS_P2;PMS_P1;PMS_P2;Temp;Humidity;BMP_temperature;BMP_pressure;BME280_temperature;BME280_humidity;BME280_pressure;Samples;Min_cycle;Max_cycle;Signal;HPM_P1;HPM_P2
2022/12/29 00:04:15;;;;;;;0.40;0.40;;;;;;;16.12;68.93;99478.91;20392764;29;20134;-88
2022/12/29 00:35:09;;;;;;;0.40;0.40;;;;;;;16.12;69.04;99463.63;20323635;29;20056;-88
2022/12/29 00:45:11;;;;;;;0.38;0.38;;;;;;;16.12;69.46;99442.16;20321310;29;20055;-88
2022/12/29 00:55:12;;;;;;;0.55;0.50;;;;;;;15.96;69.22;99410.72;20305657;29;20064;-88
2022/12/29 01:05:14;;;;;;;1.13;0.52;;;;;;;16.13;69.26;99425.06;20299824;29;20056;-88
2022/12/29 01:15:15;;;;;;;0.40;0.40;;;;;;;16.12;69.36;99415.31;20309190;29;20055;-88
2022/12/29 01:25:17;;;;;;;0.55;0.55;;;;;;;16.12;69.51;99399.19;20332252;29;20048;-87
2022/12/29 01:35:19;;;;;;;0.47;0.47;;;;;;;16.12;69.44;99377.72;20311507;29;20051;-88
2022/12/29 01:45:20;;;;;;;0.85;0.60;;;;;;;16.13;69.46;99381.25;20332386;29;20139;-87
2022/12/29 01:55:22;;;;;;;1.02;0.73;;;;;;;15.89;69.52;99334.50;20316093;29;20066;-87
2022/12/29 02:05:28;;;;;;;0.77;0.40;;;;;;;16.13;69.38;99349.03;20319088;29;20064;-87
2022/12/29 02:16:04;;;;;;;0.90;0.50;;;;;;;16.12;69.43;99350.03;20324226;29;20453;-87
2022/12/29 02:26:09;;;;;;;;;;;;;;;16.12;69.63;99340.13;20333468;29;20071;-88
2022/12/29 02:36:32;;;;;;;0.95;0.40;;;;;;;15.41;69.36;99224.13;20344815;29;19967;-88
2022/12/29 02:46:47;;;;;;;0.50;0.50;;;;;;;16.11;69.58;99351.06;20330902;29;20056;-87
2022/12/29 02:56:49;;;;;;;0.50;0.50;;;;;;;15.77;69.70;99289.16;20313048;29;20402;-88
2022/12/29 03:07:18;;;;;;;0.50;0.50;;;;;;;16.12;69.85;99339.31;20310691;29;20138;-88
2022/12/29 03:17:32;;;;;;;0.68;0.50;;;;;;;16.12;69.74;99317.84;20344026;29;20063;-87
2022/12/29 03:27:41;;;;;;;0.60;0.60;;;;;;;15.98;69.88;99320.16;20287976;29;20123;-89
2022/12/29 03:38:03;;;;;;;0.65;0.50;;;;;;;16.12;69.93;99344.69;20319379;29;20056;-88
2022/12/29 03:48:05;;;;;;;0.82;0.50;;;;;;;15.86;70.04;99287.34;20307921;29;20063;-88
2022/12/29 03:58:07;;;;;;;0.60;0.50;;;;;;;15.94;69.87;99287.41;20330001;28;20052;-88
2022/12/29 04:08:28;;;;;;;0.68;0.43;;;;;;;16.13;69.88;99346.34;20345267;29;20047;-88
2022/12/29 04:18:30;;;;;;;0.40;0.40;;;;;;;16.12;69.86;99326.72;20310006;29;20098;-88
2022/12/29 04:28:32;;;;;;;0.68;0.43;;;;;;;16.12;69.85;99334.75;20307856;29;20051;-87
2022/12/29 04:38:52;;;;;;;0.30;0.30;;;;;;;16.12;69.68;99342.81;20325738;29;20511;-88
2022/12/29 04:48:54;;;;;;;0.60;0.40;;;;;;;16.12;69.85;99355.41;20284761;29;20524;-88
2022/12/29 04:59:22;;;;;;;1.20;0.40;;;;;;;16.11;69.64;99338.44;20310922;29;20052;-88
2022/12/29 05:09:27;;;;;;;0.47;0.40;;;;;;;16.11;69.65;99343.81;20316158;29;20044;-88
2022/12/29 05:19:29;;;;;;;1.27;0.60;;;;;;;16.11;69.61;99343.81;20329408;29;20044;-86
2022/12/29 05:29:31;;;;;;;0.60;0.30;;;;;;;16.11;69.34;99337.63;20363148;28;20056;-86
2022/12/29 05:39:32;;;;;;;1.75;0.30;;;;;;;16.12;69.32;99344.69;20372726;28;20044;-87
2022/12/29 05:49:37;;;;;;;1.97;0.50;;;;;;;16.10;69.35;99350.19;20380766;28;20055;-86
2022/12/29 05:59:42;;;;;;;;;;;;;;;16.11;69.22;99353.72;20394616;28;20493;-86
2022/12/29 06:09:44;;;;;;;0.82;0.50;;;;;;;16.00;69.25;99352.19;20377415;28;19949;-87
2022/12/29 06:19:47;;;;;;;0.85;0.40;;;;;;;16.09;68.73;99362.78;20303569;29;20080;-86
2022/12/29 06:29:49;;;;;;;0.70;0.40;;;;;;;15.67;68.77;99323.34;20287620;29;20099;-86
2022/12/29 06:39:51;;;;;;;0.98;0.35;;;;;;;16.10;68.53;99420.00;20296126;29;20151;-88
2022/12/29 06:49:53;;;;;;;2.08;0.60;;;;;;;16.09;68.31;99410.25;20311188;29;20055;-88
2022/12/29 06:59:55;;;;;;;1.95;0.63;;;;;;;16.09;68.22;99416.50;20304247;29;20044;-88
2022/12/29 07:09:57;;;;;;;1.63;0.60;;;;;;;16.04;67.89;99413.44;20295172;29;20417;-88
2022/12/29 07:19:58;;;;;;;2.60;0.63;;;;;;;16.06;68.02;99422.19;20305737;29;20064;-88
2022/12/29 07:30:00;;;;;;;2.53;0.88;;;;;;;16.08;68.02;99432.75;20300233;29;20088;-88
2022/12/29 07:40:03;;;;;;;1.42;0.60;;;;;;;16.09;67.67;99439.78;20287835;29;20390;-88
2022/12/29 07:50:05;;;;;;;1.52;0.70;;;;;;;16.09;67.76;99434.41;20290980;29;20072;-86
2022/12/29 08:00:07;;;;;;;2.10;0.60;;;;;;;15.95;67.64;99425.16;20314620;28;20054;-86
2022/12/29 08:10:12;;;;;;;1.85;0.70;;;;;;;16.09;67.56;99472.00;20389174;28;20581;-86
2022/12/29 08:20:14;;;;;;;3.17;0.95;;;;;;;16.08;67.32;99457.75;20316225;29;20115;-86
2022/12/29 08:30:16;;;;;;;1.65;0.80;;;;;;;16.08;67.05;99462.28;20287101;29;20557;-86
2022/12/29 08:40:17;;;;;;;1.83;0.70;;;;;;;16.01;67.03;99448.66;20298527;28;20157;-92
2022/12/29 08:50:19;;;;;;;2.05;0.80;;;;;;;16.08;66.88;99463.13;20334339;28;20044;-92
2022/12/29 09:00:21;;;;;;;2.38;0.73;;;;;;;15.89;66.63;99429.31;20317010;28;20182;-87
2022/12/29 09:10:23;;;;;;;2.67;0.70;;;;;;;16.12;67.64;99457.44;20305408;28;20048;-86
2022/12/29 09:20:24;;;;;;;1.52;0.60;;;;;;;16.12;67.09;99471.69;20282811;29;20207;-89
2022/12/29 09:30:26;;;;;;;3.28;0.90;;;;;;;16.12;66.97;99479.75;20316690;29;21876;-87
2022/12/29 09:40:32;;;;;;;2.75;0.70;;;;;;;16.11;67.08;99488.78;20305299;28;20059;-86
2022/12/29 09:50:35;;;;;;;2.72;0.60;;;;;;;16.04;67.18;99490.44;20322860;28;20066;-85
2022/12/29 10:00:40;;;;;;;2.35;0.90;;;;;;;16.11;67.19;99496.03;20307679;29;20074;-87
2022/12/29 10:10:55;;;;;;;1.95;0.68;;;;;;;16.11;67.75;99498.72;20312722;29;20058;-88
2022/12/29 10:21:22;;;;;;;6.25;0.80;;;;;;;16.03;68.71;99484.25;20327000;29;20044;-85
2022/12/29 10:31:34;;;;;;;3.38;0.98;;;;;;;16.12;69.20;99497.72;20318590;28;20047;-85
2022/12/29 10:41:41;;;;;;;5.03;1.08;;;;;;;15.90;69.44;99492.72;20285607;29;20048;-89
2022/12/29 10:51:44;;;;;;;3.10;1.00;;;;;;;16.12;70.11;99532.59;20331847;28;20055;-86
2022/12/29 11:02:14;;;;;;;4.45;1.10;;;;;;;16.00;70.24;99524.81;20322659;28;20048;-87
2022/12/29 11:12:25;;;;;;;3.63;1.00;;;;;;;16.13;69.98;99563.81;20291207;29;20118;-87
2022/12/29 11:22:28;;;;;;;1.52;0.70;;;;;;;15.90;69.91;99540.16;20326979;28;20409;-86
2022/12/29 11:32:30;;;;;;;2.83;0.73;;;;;;;16.12;70.12;99608.63;20344781;28;20052;-87
2022/12/29 11:42:46;;;;;;;3.45;0.73;;;;;;;15.63;70.99;99545.47;20339712;29;20134;-93
2022/12/29 11:52:49;;;;;;;3.88;1.40;;;;;;;16.16;71.28;99641.38;20398310;29;20043;-91
2022/12/29 12:02:57;;;;;;;2.50;0.73;;;;;;;16.17;71.10;99665.41;20394170;29;20071;-90
2022/12/29 12:13:17;;;;;;;3.33;0.80;;;;;;;16.17;71.23;99681.50;20353017;29;20409;-91
2022/12/29 12:23:30;;;;;;;3.38;1.02;;;;;;;16.17;70.76;99699.44;20318739;29;20044;-90
2022/12/29 12:33:41;;;;;;;4.15;0.90;;;;;;;16.16;70.29;99711.19;20395412;29;20083;-91
2022/12/29 12:43:46;;;;;;;3.30;0.93;;;;;;;15.94;70.13;99705.28;20323932;29;20055;-91
2022/12/29 12:54:02;;;;;;;3.42;0.90;;;;;;;16.14;70.02;99734.66;20338467;29;20051;-90
2022/12/29 13:04:15;;;;;;;2.42;1.10;;;;;;;16.14;69.83;99761.50;20337603;29;20075;-90
2022/12/29 13:14:24;;;;;;;3.00;1.05;;;;;;;16.13;69.59;99765.19;20473362;28;20377;-91
2022/12/29 13:24:55;;;;;;;3.08;1.10;;;;;;;16.12;69.50;99774.25;20455224;28;20504;-91
2022/12/29 13:35:22;;;;;;;3.45;1.05;;;;;;;16.12;69.26;99785.00;20432742;28;20135;-91
2022/12/29 13:45:25;;;;;;;3.70;1.05;;;;;;;16.11;68.67;99800.25;20470607;28;20043;-88
2022/12/29 13:55:36;;;;;;;3.85;1.15;;;;;;;16.11;68.73;99823.56;20451527;28;20057;-90
2022/12/29 14:05:37;;;;;;;3.03;1.20;;;;;;;16.09;68.43;99824.56;20451009;28;20055;-90
2022/12/29 14:15:41;;;;;;;4.78;0.90;;;;;;;16.07;68.64;99821.19;20452669;28;20142;-91
2022/12/29 14:25:59;;;;;;;3.60;1.00;;;;;;;16.08;68.07;99833.63;20451598;28;20051;-91
2022/12/29 14:36:22;;;;;;;3.10;0.90;;;;;;;16.09;67.93;99848.72;20395307;28;20465;-92
2022/12/29 14:46:24;;;;;;;2.78;0.88;;;;;;;16.07;67.90;99858.78;20451611;28;20086;-92
2022/12/29 14:56:31;;;;;;;3.92;1.30;;;;;;;15.95;67.93;99827.78;20451656;28;20381;-92
2022/12/29 15:06:36;;;;;;;4.45;1.02;;;;;;;15.97;67.70;99851.75;20471725;28;20052;-91
2022/12/29 15:16:37;;;;;;;4.90;1.40;;;;;;;16.07;67.33;99866.84;20464529;28;20054;-91
2022/12/29 15:26:47;;;;;;;2.00;0.90;;;;;;;16.05;67.43;99874.19;20480569;28;20500;-91
2022/12/29 15:36:50;;;;;;;3.75;0.90;;;;;;;16.05;67.50;99876.88;20352420;29;20056;-92
2022/12/29 15:46:52;;;;;;;2.40;0.85;;;;;;;16.05;67.16;99890.31;20425133;28;20075;-89
2022/12/29 15:56:53;;;;;;;3.30;0.93;;;;;;;16.07;67.42;99896.38;20336892;29;20071;-86
2022/12/29 16:07:03;;;;;;;3.90;0.88;;;;;;;15.94;67.04;99880.59;20396707;29;20509;-89
2022/12/29 16:17:05;;;;;;;2.15;0.90;;;;;;;16.07;67.43;99906.25;20319646;29;20044;-88
2022/12/29 16:27:36;;;;;;;3.72;0.85;;;;;;;15.48;67.38;99823.28;20371313;29;20150;-87
2022/12/29 16:37:39;;;;;;;2.17;0.90;;;;;;;15.87;67.58;99884.84;20325106;29;20055;-88
2022/12/29 16:47:40;;;;;;;2.88;0.88;;;;;;;15.93;67.30;99899.56;20328199;29;20056;-91
2022/12/29 16:57:42;;;;;;;2.42;0.93;;;;;;;15.99;67.35;99909.69;20335199;29;20056;-88
2022/12/29 17:07:44;;;;;;;1.83;1.05;;;;;;;16.04;67.42;99920.84;20335515;29;20127;-91
2022/12/29 17:17:47;;;;;;;2.22;0.77;;;;;;;16.04;67.49;99942.31;20354919;29;20059;-86
2022/12/29 17:27:56;;;;;;;2.22;0.77;;;;;;;16.04;67.28;99966.47;20334551;29;20107;-85
2022/12/29 17:37:57;;;;;;;1.35;0.82;;;;;;;16.04;67.54;99963.78;20321609;29;20450;-85
2022/12/29 17:48:00;;;;;;;2.22;0.80;;;;;;;15.83;67.66;99930.91;20319018;29;20461;-87
2022/12/29 17:58:15;;;;;;;1.90;0.80;;;;;;;16.05;67.56;99992.31;20307412;29;20048;-90
2022/12/29 18:08:16;;;;;;;2.63;0.73;;;;;;;16.04;67.70;99996.00;20335254;29;20059;-85
2022/12/29 18:18:20;;;;;;;2.00;0.73;;;;;;;16.02;67.70;100013.22;20321357;29;20527;-85
2022/12/29 18:28:23;;;;;;;2.30;1.08;;;;;;;16.07;67.79;100003.75;20355524;29;20504;-89
2022/12/29 18:38:26;;;;;;;3.42;0.90;;;;;;;16.08;68.90;100040.34;20299574;28;20048;-87
2022/12/29 18:48:28;;;;;;;3.45;0.93;;;;;;;15.97;68.58;100016.38;20351254;28;20978;-88
2022/12/29 18:58:29;;;;;;;3.53;1.15;;;;;;;15.80;68.29;100002.66;20348476;28;20055;-88
2022/12/29 19:08:34;;;;;;;3.97;1.35;;;;;;;16.08;68.29;100055.59;20341385;29;20078;-88
2022/12/29 19:18:36;;;;;;;3.83;1.42;;;;;;;16.07;68.34;100073.56;20353384;29;20056;-87
2022/12/29 19:28:51;;;;;;;3.00;1.00;;;;;;;16.07;68.32;100068.19;20359582;29;20501;-90
2022/12/29 19:38:53;;;;;;;3.05;1.20;;;;;;;16.06;68.42;100093.34;20322941;29;20374;-90
2022/12/29 19:48:57;;;;;;;3.22;1.20;;;;;;;16.06;68.09;100098.72;20336384;29;20052;-88
2022/12/29 19:58:59;;;;;;;2.57;0.87;;;;;;;15.99;68.33;100092.25;20345020;29;20056;-89
2022/12/29 20:09:01;;;;;;;3.25;0.98;;;;;;;15.86;68.24;100064.81;20289698;29;20171;-90
2022/12/29 20:19:03;;;;;;;4.82;1.00;;;;;;;16.06;67.81;100105.91;20349537;29;20123;-91
2022/12/29 20:29:05;;;;;;;3.15;1.08;;;;;;;16.05;67.77;100118.50;20328449;28;20083;-91
2022/12/29 20:39:09;;;;;;;2.42;1.17;;;;;;;15.95;67.86;100112.31;20330271;28;20051;-91
2022/12/29 20:49:10;;;;;;;2.10;0.85;;;;;;;15.91;67.67;100111.75;20312513;29;20115;-92
2022/12/29 20:59:12;;;;;;;2.63;1.13;;;;;;;16.05;67.52;100157.94;20308841;29;20056;-91
2022/12/29 21:09:29;;;;;;;2.20;0.90;;;;;;;15.87;67.14;100144.34;20315626;29;20130;-92
2022/12/29 21:19:31;;;;;;;3.40;1.20;;;;;;;16.03;67.02;100171.50;20314031;29;20051;-91
2022/12/29 21:29:32;;;;;;;2.35;1.00;;;;;;;15.92;66.65;100177.84;20317288;29;20076;-92
2022/12/29 21:39:34;;;;;;;3.05;1.08;;;;;;;16.03;66.66;100193.00;20296549;29;20052;-93
2022/12/29 21:49:35;;;;;;;3.47;1.30;;;;;;;16.02;66.48;100207.41;20295526;29;20047;-91
2022/12/29 22:20:18;;;;;;;3.55;1.20;;;;;;;15.99;65.74;100231.84;20332560;28;20044;-92
2022/12/29 22:30:20;;;;;;;4.30;1.30;;;;;;;16.00;65.77;100255.03;20349251;29;21542;-93
2022/12/29 22:40:21;;;;;;;5.88;1.55;;;;;;;15.82;65.43;100227.97;20349613;28;20102;-91
2022/12/29 22:50:23;;;;;;;5.05;1.60;;;;;;;15.90;65.57;100256.81;20351173;28;20051;-92
2022/12/29 23:00:24;;;;;;;3.72;1.65;;;;;;;15.65;65.08;100224.13;20345321;29;20048;-92
2022/12/29 23:10:26;;;;;;;4.47;1.75;;;;;;;15.82;65.00;100260.19;20348347;29;20052;-92
2022/12/29 23:20:27;;;;;;;4.07;1.30;;;;;;;15.99;64.75;100314.22;20341843;28;20127;-91
2022/12/29 23:30:29;;;;;;;4.57;1.38;;;;;;;15.89;64.78;100320.41;20341956;29;20079;-92
2022/12/29 23:40:32;;;;;;;4.38;1.60;;;;;;;15.59;64.71;100279.19;20307450;29;20300;-92
2022/12/29 23:50:33;;;;;;;4.53;1.30;;;;;;;15.76;64.54;100307.19;20221676;29;20131;-91
